Sumari Climatol˛gic Mensual del mes 10 del any 2007
Les temperatures estan en ║C, la humitat relativa en %
La plutja en l/m^2, y el vent en m/s.
Data T. Mitja T.Max H.T.Max T. Min. H.T. Min. P. Reixiu Sensasiˇ fred Sensasiˇ Xafogor Plutja Vel. Vent Ratxa H. Ratxa Dir. Ratxa Dir. Dominant Pressiˇ Mitja Hum.
2/10/2007 20, 23,7 13:50 17,8 8:0 16,2 23,7 36,86 0,0 1,13 10,08 15:50:00 NE NE 1018,3 78,8
3/10/2007 20,7 25,4 16:50 17,9 7:20 15,2 24,6 35,28 1,0 ,84 11,68 12:20:00 SE SE 1014,1 70,9
4/10/2007 17,1 19,9 17:20 15,4 7:50 13,4 23,1 34,04 7,2 ,43 4,86 12:20:00 SE S 1016,8 79,1
5/10/2007 19,9 26,7 15:50 15,2 7:20 11,6 23,8 31,07 0,1 1,00 7,26 15:00:00 SO S 1017,7 59,
6/10/2007 21,2 27,8 16:0 16,4 5:30 10,3 24,7 29,80 0,0 ,99 5,54 21:20:00 S S 1018,1 49,8
7/10/2007 21, 27,5 17:0 16, 5:0 11,1 25,3 30,62 0,0 ,52 4,86 5:50:00 S SO 1018,7 53,4
8/10/2007 19,9 25,7 15:40 15,6 4:40 14,7 24,6 34,87 0,0 ,53 5,16 17:10:00 NE S 1021,2 72,3
9/10/2007 19,5 24, 13:20 15,6 23:50 14,6 24,2 34,84 0,0 ,61 6,40 14:30:00 NE NE 1023,3 73,6
10/10/2007 18,8 25,7 15:30 14,1 8:20 11,4 23,3 30,98 0,0 ,84 6,36 17:00:00 NE S 1020,1 62,4
11/10/2007 13,8 16,8 0:0 12, 7:40 9,7 19,6 30,02 16,0 ,96 11,60 2:10:00 NE NE 1017,3 76,7
12/10/2007 13,4 15,5 18:40 11,7 10:50 11,8 19,9 33,40 193,9 ,71 7,40 18:50:00 N SE 1017, 89,9
13/10/2007 16,2 21,9 16:10 12,6 8:30 11,6 22,3 31,81 0,0 ,53 5,16 16:30:00 NE SE 1019, 74,4
14/10/2007 15,7 21,3 15:40 11,6 8:30 11,5 21,4 31,84 0,0 ,74 5,56 17:20:00 NE S 1019,3 76,3
15/10/2007 15,9 20,6 16:30 12,1 5:20 12,3 21,5 32,89 0,1 ,73 7,16 18:10:00 NE E 1019,3 79,5
16/10/2007 15,6 17, 13:0 14,5 22:10 13,7 22,1 35,14 21,8 ,45 7,04 18:30:00 NE NE 1019,6 88,2
17/10/2007 16,2 21, 12:0 12,9 8:30 11,7 21,4 31,89 1,1 ,91 8,88 15:40:00 NE S 1019,5 74,8
18/10/2007 15,8 19,2 16:0 13,9 6:50 13,5 19,4 34,85 74,0 2,07 15,44 7:40:00 NO N 1020, 86,6
20/10/2007 19,9 24,8 15:30 15,5 23:40 13, 24,1 32,64 0,0 ,84 5,52 16:00:00 NE E 1018,6 64,4
21/10/2007 15,4 19,6 15:50 13, 6:40 11,6 20,4 31,99 5,4 1,18 7,94 16:40:00 S S 1021,1 77,9
22/10/2007 18,6 26,1 14:50 13,4 7:40 7, 22,2 26,37 0,0 1,57 10,86 14:20:00 SO S 1015,9 46,7
23/10/2007 18,2 21,8 15:10 14,8 7:50 5,7 22,4 25,17 0,0 1,19 7,78 15:20:00 SO S 1013,2 44,
24/10/2007 15,7 19,2 13:20 13, 23:10 10, 21, 29,78 20,6 ,94 6,62 11:20:00 S S 1010,1 69,
26/10/2007 13,1 17,6 16:20 9,5 6:30 8,4 19,6 28,41 0,0 ,78 4,82 16:30:00 N S 1015,3 73,3
27/10/2007 11,1 14,4 14:40 7,5 6:40 7,9 17,5 28,51 3,8 1,07 9,22 15:40:00 NE E 1022,4 81,
28/10/2007 13,4 17,4 14:40 11, 3:20 9,8 20,6 30,35 5,8 ,46 4,66 14:40:00 NE E 1022,6 79,4
29/10/2007 13,4 17,2 14:10 10,4 22:40 8,2 20,1 28,01 0,0 ,63 3,82 13:20:00 NE SE 1016,4 71,1